createdAt,value
2023-01-03T00:02:53.779Z,9.07
2023-01-03T00:05:56.457Z,10.20
2023-01-03T00:09:00.411Z,9.80
2023-01-03T00:12:22.481Z,9.20
2023-01-03T00:15:27.048Z,7.57
2023-01-03T00:18:30.986Z,9.63
2023-01-03T00:21:33.902Z,11.33
2023-01-03T00:24:36.551Z,10.17
2023-01-03T00:27:39.141Z,6.87
2023-01-03T00:30:41.749Z,12.50
2023-01-03T00:33:45.706Z,9.03
2023-01-03T00:36:48.338Z,12.60
2023-01-03T00:39:50.957Z,7.90
2023-01-03T00:43:11.304Z,13.00
2023-01-03T00:46:15.453Z,12.93
2023-01-03T00:49:19.769Z,8.00
2023-01-03T00:52:22.315Z,11.37
2023-01-03T00:55:24.930Z,12.67
2023-01-03T00:58:30.513Z,8.23
2023-01-03T01:01:43.925Z,9.30
2023-01-03T01:04:50.046Z,9.83
2023-01-03T01:07:52.647Z,7.63
2023-01-03T01:11:04.529Z,9.57
2023-01-03T01:14:19.754Z,13.83
2023-01-03T01:17:23.102Z,12.63
2023-01-03T01:20:27.212Z,12.67
2023-01-03T01:23:29.824Z,10.83
2023-01-03T01:26:32.421Z,8.80
2023-01-03T01:29:35.062Z,8.63
2023-01-03T01:32:37.639Z,10.90
2023-01-03T01:35:41.629Z,10.07
2023-01-03T01:38:44.479Z,6.13
2023-01-03T01:42:06.077Z,10.47
2023-01-03T01:45:13.989Z,10.87
2023-01-03T01:48:16.825Z,9.83
2023-01-03T01:51:22.096Z,9.93
2023-01-03T01:54:25.475Z,6.90
2023-01-03T01:57:28.281Z,8.00
2023-01-03T02:00:31.394Z,4.90
2023-01-03T02:03:34.021Z,10.63
2023-01-03T02:06:40.666Z,6.53
2023-01-03T02:09:43.369Z,5.57
2023-01-03T02:13:10.112Z,5.67
2023-01-03T02:16:25.200Z,8.50
2023-01-03T02:20:01.743Z,8.70
2023-01-03T02:23:27.816Z,11.20
2023-01-03T02:26:59.003Z,16.13
2023-01-03T02:30:25.844Z,10.43
2023-01-03T02:33:34.249Z,7.83
2023-01-03T02:36:49.550Z,12.83
2023-01-03T02:40:00.952Z,8.97
2023-01-03T02:43:09.290Z,10.67
2023-01-03T02:46:18.959Z,9.53
2023-01-03T02:49:25.597Z,11.80
2023-01-03T02:52:31.644Z,10.33
2023-01-03T02:55:38.125Z,10.80
2023-01-03T02:58:43.667Z,6.93
2023-01-03T03:01:50.881Z,9.20
2023-01-03T03:04:57.749Z,10.97
2023-01-03T03:08:00.441Z,8.80
2023-01-03T03:11:20.738Z,7.47
2023-01-03T03:14:29.796Z,8.33
2023-01-03T03:17:33.939Z,14.63
2023-01-03T03:20:54.071Z,16.70
2023-01-03T03:24:21.022Z,4.47
2023-01-03T03:27:43.362Z,9.07
2023-01-03T03:30:49.541Z,6.50
2023-01-03T03:33:58.579Z,7.63
2023-01-03T03:37:05.132Z,9.43
2023-01-03T03:40:27.014Z,9.10
2023-01-03T03:43:47.499Z,11.23
2023-01-03T03:46:57.211Z,6.30
2023-01-03T03:50:05.471Z,12.00
2023-01-03T03:53:10.160Z,11.93
2023-01-03T03:56:17.491Z,10.50
2023-01-03T03:59:23.162Z,14.43
2023-01-03T04:02:28.872Z,12.60
2023-01-03T04:05:37.712Z,7.07
2023-01-03T04:08:40.428Z,7.97
2023-01-03T04:11:43.505Z,6.37
2023-01-03T04:14:46.124Z,10.47
2023-01-03T04:17:48.739Z,14.27
2023-01-03T04:20:52.748Z,8.53
2023-01-03T04:23:55.335Z,10.43
2023-01-03T04:26:57.938Z,13.43
2023-01-03T04:30:00.561Z,4.53
2023-01-03T04:33:06.056Z,12.60
2023-01-03T04:36:11.365Z,9.23
2023-01-03T04:39:14.509Z,7.30
2023-01-03T04:42:34.441Z,5.50
2023-01-03T04:45:37.159Z,11.17
2023-01-03T04:48:39.881Z,11.07
2023-01-03T04:51:43.791Z,6.70
2023-01-03T04:54:46.354Z,11.43
2023-01-03T04:57:48.922Z,9.93
2023-01-03T05:00:51.868Z,11.20
2023-01-03T05:03:59.736Z,9.13
2023-01-03T05:07:03.714Z,9.17
2023-01-03T05:10:07.190Z,11.63
2023-01-03T05:13:09.924Z,5.70
2023-01-03T05:16:14.528Z,8.33
2023-01-03T05:19:17.269Z,11.87
2023-01-03T05:22:38.672Z,7.60
2023-01-03T05:25:53.435Z,6.23
2023-01-03T05:28:56.528Z,6.80
2023-01-03T05:31:59.212Z,12.00
2023-01-03T05:35:01.861Z,8.23
2023-01-03T05:38:05.873Z,10.17
2023-01-03T05:41:08.484Z,12.27
2023-01-03T05:44:11.165Z,6.43
2023-01-03T05:47:13.764Z,7.70
2023-01-03T05:50:16.459Z,9.47
2023-01-03T05:53:20.406Z,9.90
2023-01-03T05:56:23.112Z,8.90
2023-01-03T05:59:26.920Z,9.00
2023-01-03T06:02:30.042Z,11.97
2023-01-03T06:05:32.752Z,12.80
2023-01-03T06:08:37.268Z,9.57
2023-01-03T06:11:40.419Z,16.13
2023-01-03T06:14:43.022Z,13.10
2023-01-03T06:17:58.734Z,13.27
2023-01-03T06:21:01.436Z,16.03
2023-01-03T06:24:06.277Z,13.70
2023-01-03T06:27:08.859Z,15.40
2023-01-03T06:30:12.524Z,16.17
2023-01-03T06:33:15.198Z,12.13
2023-01-03T06:36:21.036Z,16.77
2023-01-03T06:39:25.170Z,15.63
2023-01-03T06:42:46.107Z,16.87
2023-01-03T06:46:06.455Z,10.47
2023-01-03T06:49:29.897Z,15.77
2023-01-03T06:52:50.759Z,11.73
2023-01-03T06:55:57.384Z,19.07
2023-01-03T06:59:00.182Z,11.57
2023-01-03T07:02:02.918Z,18.00
2023-01-03T07:05:06.308Z,11.27
2023-01-03T07:08:08.867Z,13.53
2023-01-03T07:11:12.868Z,17.47
2023-01-03T07:14:14.558Z,14.97
2023-01-03T07:17:17.932Z,13.03
2023-01-03T07:20:20.547Z,15.30
2023-01-03T07:23:23.144Z,10.97
2023-01-03T07:26:27.126Z,17.57
2023-01-03T07:29:29.716Z,14.23
2023-01-03T07:32:32.321Z,13.97
2023-01-03T07:35:35.695Z,15.13
2023-01-03T07:38:38.853Z,12.23
2023-01-03T07:42:00.143Z,11.67
2023-01-03T07:45:02.760Z,14.73
2023-01-03T07:48:05.766Z,12.33
2023-01-03T07:51:09.947Z,12.50
2023-01-03T07:54:12.546Z,16.07
2023-01-03T07:57:16.873Z,12.73
2023-01-03T08:00:19.885Z,9.40
2023-01-03T08:03:22.493Z,12.67
2023-01-03T08:06:25.692Z,11.93
2023-01-03T08:09:45.992Z,10.93
2023-01-03T08:13:10.063Z,15.20
2023-01-03T08:16:14.765Z,15.80
2023-01-03T08:19:18.394Z,11.37
2023-01-03T08:22:20.978Z,15.43
2023-01-03T08:25:23.567Z,12.00
2023-01-03T08:28:27.526Z,9.43
2023-01-03T08:31:35.414Z,14.10
2023-01-03T08:34:41.745Z,13.33
2023-01-03T08:37:45.506Z,13.20
2023-01-03T08:40:49.034Z,13.23
2023-01-03T08:43:54.394Z,11.77
2023-01-03T08:47:00.326Z,12.23
2023-01-03T08:50:03.755Z,17.67
2023-01-03T08:53:06.382Z,15.10
2023-01-03T08:56:09.356Z,13.23
2023-01-03T08:59:13.300Z,12.97
2023-01-03T09:02:16.044Z,15.30
2023-01-03T09:05:18.901Z,17.13
2023-01-03T09:08:21.520Z,14.60
2023-01-03T09:11:24.144Z,17.80
2023-01-03T09:14:28.076Z,14.17
2023-01-03T09:17:30.726Z,12.30
2023-01-03T09:20:33.305Z,15.97
2023-01-03T09:23:37.531Z,13.90
2023-01-03T09:26:40.175Z,15.83
2023-01-03T09:29:44.120Z,14.23
2023-01-03T09:32:46.881Z,15.60
2023-01-03T09:35:49.556Z,12.57
2023-01-03T09:38:52.130Z,15.40
2023-01-03T09:42:08.659Z,10.77
2023-01-03T09:45:16.759Z,18.57
2023-01-03T09:48:26.538Z,14.03
2023-01-03T09:51:48.832Z,18.37
2023-01-03T09:55:09.125Z,13.60
2023-01-03T09:58:33.058Z,13.93
2023-01-03T10:02:02.399Z,15.00
2023-01-03T10:05:28.489Z,12.20
2023-01-03T10:08:39.769Z,19.67
2023-01-03T10:11:53.468Z,10.67
2023-01-03T10:15:08.542Z,13.33
2023-01-03T10:18:27.896Z,16.03
2023-01-03T10:21:42.116Z,15.87
2023-01-03T10:24:47.490Z,19.43
2023-01-03T10:27:54.614Z,11.47
2023-01-03T10:31:11.084Z,20.57
2023-01-03T10:34:15.063Z,13.67
2023-01-03T10:37:19.297Z,19.13
2023-01-03T10:40:22.171Z,16.85
2023-01-03T10:43:31.330Z,18.87
2023-01-03T10:46:34.097Z,12.53
2023-01-03T10:49:38.107Z,14.07
2023-01-03T10:52:42.560Z,11.40
2023-01-03T10:55:48.241Z,12.77
2023-01-03T10:58:54.099Z,15.93
2023-01-03T11:02:00.283Z,11.50
2023-01-03T11:05:12.372Z,8.80
2023-01-03T11:08:22.427Z,11.27
2023-01-03T11:11:29.910Z,13.00
2023-01-03T11:14:32.597Z,14.93
2023-01-03T11:17:35.593Z,15.77
2023-01-03T11:20:45.854Z,10.77
2023-01-03T11:24:02.551Z,13.90
2023-01-03T11:27:18.135Z,8.40
2023-01-03T11:30:30.491Z,10.53
2023-01-03T11:33:49.452Z,6.87
2023-01-03T11:37:02.375Z,6.37
2023-01-03T11:40:17.511Z,8.30
2023-01-03T11:43:32.367Z,6.27
2023-01-03T11:46:50.146Z,5.73
2023-01-03T11:50:12.522Z,7.57
2023-01-03T11:53:30.804Z,6.17
2023-01-03T11:56:37.879Z,6.20
2023-01-03T11:59:53.564Z,4.33
2023-01-03T12:03:24.068Z,4.53
2023-01-03T12:06:35.492Z,7.80
2023-01-03T12:09:48.853Z,7.50
2023-01-03T12:13:11.512Z,3.70
2023-01-03T12:16:23.369Z,5.63
2023-01-03T12:19:34.603Z,6.37
2023-01-03T12:22:40.044Z,4.37
2023-01-03T12:25:50.480Z,5.30
2023-01-03T12:29:01.173Z,5.07
2023-01-03T12:32:11.192Z,6.43
2023-01-03T12:35:25.418Z,5.37
2023-01-03T12:38:31.697Z,5.57
2023-01-03T12:41:44.096Z,8.70
2023-01-03T12:44:48.867Z,4.67
2023-01-03T12:47:57.704Z,5.07
2023-01-03T12:51:00.371Z,4.80
2023-01-03T12:54:17.025Z,14.23
2023-01-03T12:57:55.060Z,6.43
2023-01-03T13:01:00.261Z,5.30
2023-01-03T13:04:15.307Z,5.80
2023-01-03T13:07:26.458Z,7.13
2023-01-03T13:10:34.538Z,9.63
2023-01-03T13:13:38.550Z,7.87
2023-01-03T13:16:45.392Z,6.30
2023-01-03T13:19:58.077Z,11.07
2023-01-03T13:23:01.299Z,7.97
2023-01-03T13:26:24.895Z,8.23
2023-01-03T13:29:54.906Z,5.93
2023-01-03T13:33:07.990Z,9.53
2023-01-03T13:36:10.895Z,10.33
2023-01-03T13:39:32.212Z,11.00
2023-01-03T13:42:38.452Z,7.37
2023-01-03T13:46:02.514Z,8.47
2023-01-03T13:49:07.872Z,6.37
2023-01-03T13:52:37.584Z,11.37
2023-01-03T13:55:47.888Z,9.80
2023-01-03T13:58:55.967Z,18.37
2023-01-03T14:02:18.646Z,13.40
2023-01-03T14:05:50.882Z,7.37
2023-01-03T14:09:22.717Z,8.87
2023-01-03T14:13:10.050Z,13.23
2023-01-03T14:16:20.178Z,14.00
2023-01-03T14:19:29.031Z,8.83
2023-01-03T14:22:38.006Z,12.07
2023-01-03T14:25:42.413Z,11.47
2023-01-03T14:28:49.212Z,8.60
2023-01-03T14:31:55.743Z,11.63
2023-01-03T14:34:59.866Z,12.17
2023-01-03T14:38:06.689Z,9.27
2023-01-03T14:41:27.386Z,11.50
2023-01-03T14:44:30.970Z,12.93
2023-01-03T14:47:38.047Z,8.00
2023-01-03T14:50:43.588Z,12.53
2023-01-03T14:53:46.825Z,14.50
2023-01-03T14:56:49.934Z,14.17
2023-01-03T14:59:54.415Z,11.07
2023-01-03T15:02:57.941Z,10.80
2023-01-03T15:06:02.319Z,9.87
2023-01-03T15:09:22.308Z,16.50
2023-01-03T15:12:25.115Z,8.83
2023-01-03T15:15:29.802Z,14.53
2023-01-03T15:18:35.081Z,17.80
2023-01-03T15:21:39.313Z,17.27
2023-01-03T15:24:44.882Z,17.27
2023-01-03T15:27:49.975Z,14.80
2023-01-03T15:30:53.795Z,13.57
2023-01-03T15:34:01.355Z,14.00
2023-01-03T15:37:12.974Z,17.30
2023-01-03T15:40:15.783Z,13.60
2023-01-03T15:43:23.568Z,9.57
2023-01-03T15:46:28.538Z,12.63
2023-01-03T15:49:37.381Z,11.27
2023-01-03T15:52:41.331Z,16.00
2023-01-03T15:55:44.167Z,9.83
2023-01-03T15:58:47.871Z,13.83
2023-01-03T16:01:50.768Z,16.90
2023-01-03T16:04:54.438Z,13.20
2023-01-03T16:07:58.404Z,14.23
2023-01-03T16:11:03.774Z,14.93
2023-01-03T16:14:14.299Z,13.70
2023-01-03T16:17:24.670Z,16.37
2023-01-03T16:20:34.242Z,15.00
2023-01-03T16:23:38.243Z,14.77
2023-01-03T16:26:40.833Z,13.40
2023-01-03T16:29:43.458Z,18.83
2023-01-03T16:32:46.089Z,16.40
2023-01-03T16:35:48.946Z,18.30
2023-01-03T16:38:52.847Z,16.00
2023-01-03T16:42:15.181Z,17.93
2023-01-03T16:45:18.028Z,16.20
2023-01-03T16:48:24.217Z,20.07
2023-01-03T16:51:29.137Z,17.33
2023-01-03T16:54:33.100Z,17.87
2023-01-03T16:57:35.677Z,16.97
2023-01-03T17:00:38.279Z,18.70
2023-01-03T17:03:42.265Z,18.17
2023-01-03T17:06:45.738Z,17.97
2023-01-03T17:09:51.898Z,18.33
2023-01-03T17:12:54.892Z,15.63
2023-01-03T17:15:58.609Z,22.10
2023-01-03T17:19:01.209Z,19.37
2023-01-03T17:22:03.969Z,18.10
2023-01-03T17:25:11.704Z,19.97
2023-01-03T17:28:14.376Z,24.57
2023-01-03T17:31:19.212Z,20.37
2023-01-03T17:34:25.264Z,20.17
2023-01-03T17:37:27.976Z,21.00
2023-01-03T17:40:34.252Z,21.00
2023-01-03T17:43:37.232Z,22.80
2023-01-03T17:46:57.465Z,20.73
2023-01-03T17:50:01.107Z,21.00
2023-01-03T17:53:03.830Z,23.43
2023-01-03T17:56:08.047Z,23.67
2023-01-03T17:59:14.232Z,20.60
2023-01-03T18:02:19.545Z,24.27
2023-01-03T18:05:27.837Z,18.33
2023-01-03T18:08:30.637Z,21.23
2023-01-03T18:11:34.884Z,21.63
2023-01-03T18:14:37.455Z,22.83
2023-01-03T18:17:40.086Z,21.40
2023-01-03T18:20:42.688Z,27.07
2023-01-03T18:23:46.122Z,26.87
2023-01-03T18:26:53.365Z,23.13
2023-01-03T18:29:56.130Z,23.60
2023-01-03T18:32:58.753Z,21.67
2023-01-03T18:36:01.725Z,22.47
2023-01-03T18:39:07.580Z,25.77
2023-01-03T18:42:31.443Z,24.27
2023-01-03T18:45:34.244Z,24.60
2023-01-03T18:48:36.817Z,19.90
2023-01-03T18:51:39.445Z,22.33
2023-01-03T18:54:42.045Z,22.40
2023-01-03T18:57:47.349Z,29.77
2023-01-03T19:00:49.945Z,20.67
2023-01-03T19:03:52.692Z,32.53
2023-01-03T19:06:55.627Z,26.47
2023-01-03T19:09:58.822Z,24.37
2023-01-03T19:13:02.834Z,26.40
2023-01-03T19:16:06.232Z,21.80
2023-01-03T19:19:08.993Z,24.43
2023-01-03T19:22:23.529Z,24.70
2023-01-03T19:25:29.626Z,19.93
2023-01-03T19:28:33.654Z,21.37
2023-01-03T19:31:43.349Z,19.67
2023-01-03T19:34:46.077Z,17.80
2023-01-03T19:37:48.730Z,20.33
2023-01-03T19:40:51.309Z,21.33
2023-01-03T19:43:55.222Z,24.40
2023-01-03T19:46:57.921Z,17.87
2023-01-03T19:50:11.481Z,22.93
2023-01-03T19:53:14.393Z,22.80
2023-01-03T19:56:23.338Z,17.93
2023-01-03T19:59:30.131Z,16.27
2023-01-03T20:02:39.102Z,18.77
2023-01-03T20:05:42.126Z,17.33
2023-01-03T20:08:44.910Z,18.90
2023-01-03T20:11:52.702Z,23.50
2023-01-03T20:15:02.943Z,19.03
2023-01-03T20:18:24.046Z,18.43
2023-01-03T20:21:31.770Z,22.97
2023-01-03T20:24:34.875Z,20.67
2023-01-03T20:27:44.346Z,21.23
2023-01-03T20:30:48.875Z,28.83
2023-01-03T20:33:52.062Z,23.83
2023-01-03T20:36:55.692Z,20.10
2023-01-03T20:39:58.298Z,26.47
2023-01-03T20:43:02.183Z,28.70
2023-01-03T20:46:06.627Z,20.83
2023-01-03T20:49:15.812Z,19.33
2023-01-03T20:52:19.100Z,18.60
2023-01-03T20:55:23.702Z,19.83
2023-01-03T20:58:27.434Z,16.73
2023-01-03T21:01:32.037Z,20.43
2023-01-03T21:04:34.691Z,18.00
2023-01-03T21:07:51.197Z,22.50
2023-01-03T21:10:53.847Z,20.77
2023-01-03T21:13:57.459Z,17.23
2023-01-03T21:17:01.422Z,15.97
2023-01-03T21:20:04.138Z,15.77
2023-01-03T21:23:06.799Z,14.17
2023-01-03T21:26:09.364Z,17.23
2023-01-03T21:29:12.609Z,14.23
2023-01-03T21:32:16.728Z,17.73
2023-01-03T21:35:20.977Z,14.73
2023-01-03T21:38:23.757Z,17.73
2023-01-03T21:41:28.174Z,14.07
2023-01-03T21:44:30.772Z,12.13
2023-01-03T21:47:34.753Z,14.63
2023-01-03T21:50:39.541Z,16.33
2023-01-03T21:53:42.967Z,12.43
2023-01-03T21:56:46.910Z,13.60
2023-01-03T21:59:49.716Z,11.67
2023-01-03T22:03:11.262Z,8.67
2023-01-03T22:06:15.095Z,13.27
2023-01-03T22:09:31.592Z,12.33
2023-01-03T22:12:34.243Z,11.77
2023-01-03T22:15:38.018Z,12.10
2023-01-03T22:18:42.336Z,12.17
2023-01-03T22:21:44.942Z,10.10
2023-01-03T22:24:47.554Z,9.80
2023-01-03T22:27:50.642Z,9.63
2023-01-03T22:30:53.264Z,9.70
2023-01-03T22:33:57.183Z,9.23
2023-01-03T22:36:59.815Z,39.17
2023-01-03T22:40:02.444Z,21.30
2023-01-03T22:43:05.307Z,9.17
2023-01-03T22:46:08.528Z,9.40
2023-01-03T22:49:12.689Z,8.50
2023-01-03T22:52:15.288Z,8.30
2023-01-03T22:55:18.079Z,7.97
2023-01-03T22:58:20.660Z,7.23
2023-01-03T23:01:27.518Z,10.93
2023-01-03T23:04:32.275Z,6.57
2023-01-03T23:07:34.974Z,8.50
2023-01-03T23:10:37.624Z,8.13
2023-01-03T23:13:39.241Z,6.10
2023-01-03T23:16:42.058Z,4.77
2023-01-03T23:19:46.068Z,5.80
2023-01-03T23:22:52.690Z,5.77
2023-01-03T23:25:58.256Z,7.50
2023-01-03T23:29:01.459Z,7.13
2023-01-03T23:32:04.212Z,8.47
2023-01-03T23:35:09.169Z,6.73
2023-01-03T23:38:11.785Z,6.97
2023-01-03T23:41:14.401Z,4.77
2023-01-03T23:44:17.192Z,5.27
2023-01-03T23:47:19.764Z,8.27
2023-01-03T23:50:24.054Z,8.23
2023-01-03T23:53:26.662Z,5.77
2023-01-03T23:56:29.237Z,7.10
2023-01-03T23:59:31.956Z,5.30
